Skip Navigation LinksHome page > Weather > Current weather Skip Navigation Links

Current Weather

Jakutsk, Russia

For information only: do not use for flight planning or navigation.
Latest weather
Observation time Tuesday, April 28, 2015 6:30 AM JST
Local time Tuesday, April 28, 2015 7:11 AM JST
Flight conditions Visual Meteorological Conditions
Winds
Wind direction variable
Wind speed 2 mph
Visibility 6.2 mi.
Present weather light snow showers
Sky condition
Ceiling unlimited
Cloud layer scattered clouds with cumulonimbus 2,300 ft.
Temperature 32°F
Dewpoint 30°F
Altimeter 29.50 in.Hg
Precipitation
QF 6:20 PM
Derived measurements
Relative humidity 93%
Wind chill 32°F
Density altitude -919 ft.
METAR UEEE 272130Z VRB01MPS 9999 -SHSN SCT023CB 00/M01 Q0999 R23L/09//60 TEMPO 0800 +SHSN RMK QFE740

Settings

Location code

InnerDrive.Weather 4.0.5567.0 Release CLR 4.0.30319.34014
Copyright ©2015 Inner Drive Technology. All rights reserved. Portions Copyright ©1986-2015 David Braverman.

Find weather

Site navigation


Skip Navigation Links

Place info

Page info

PayPal - The safer, easier way to pay online!

Return home.

Copyright ©2015 Inner Drive Technology. Purveyors of fine, hand-crafted computer software. Page printed 2015-04-27T22:11:58 UTC.